sensor_id;sensor_type;location;lat;lon;timestamp;temperature;humidity
652;DHT22;310;48.490;9.200;2023-08-08T00:01:42;16.90;43.00
652;DHT22;310;48.490;9.200;2023-08-08T00:04:11;17.00;43.50
652;DHT22;310;48.490;9.200;2023-08-08T00:06:37;17.20;43.00
652;DHT22;310;48.490;9.200;2023-08-08T00:09:03;17.10;42.50
652;DHT22;310;48.490;9.200;2023-08-08T00:11:30;17.10;41.80
652;DHT22;310;48.490;9.200;2023-08-08T00:13:56;17.00;41.80
652;DHT22;310;48.490;9.200;2023-08-08T00:16:22;17.10;42.50
652;DHT22;310;48.490;9.200;2023-08-08T00:18:47;17.10;42.60
652;DHT22;310;48.490;9.200;2023-08-08T00:21:15;17.00;42.80
652;DHT22;310;48.490;9.200;2023-08-08T00:23:40;17.20;42.90
652;DHT22;310;48.490;9.200;2023-08-08T00:26:06;17.00;43.20
652;DHT22;310;48.490;9.200;2023-08-08T00:28:31;17.40;42.70
652;DHT22;310;48.490;9.200;2023-08-08T00:30:57;17.00;43.10
652;DHT22;310;48.490;9.200;2023-08-08T00:33:23;17.10;43.30
652;DHT22;310;48.490;9.200;2023-08-08T00:35:48;17.00;43.60
652;DHT22;310;48.490;9.200;2023-08-08T00:38:14;17.10;44.50
652;DHT22;310;48.490;9.200;2023-08-08T00:40:39;17.10;43.80
652;DHT22;310;48.490;9.200;2023-08-08T00:43:05;17.10;44.00
652;DHT22;310;48.490;9.200;2023-08-08T00:45:31;17.60;44.40
652;DHT22;310;48.490;9.200;2023-08-08T00:47:56;17.30;43.00
652;DHT22;310;48.490;9.200;2023-08-08T00:50:23;17.30;43.20
652;DHT22;310;48.490;9.200;2023-08-08T00:52:49;17.60;43.80
652;DHT22;310;48.490;9.200;2023-08-08T00:55:14;17.50;42.00
652;DHT22;310;48.490;9.200;2023-08-08T00:57:40;17.40;43.40
652;DHT22;310;48.490;9.200;2023-08-08T01:00:07;17.50;43.10
652;DHT22;310;48.490;9.200;2023-08-08T01:02:34;17.40;43.40
652;DHT22;310;48.490;9.200;2023-08-08T01:05:00;17.20;42.90
652;DHT22;310;48.490;9.200;2023-08-08T01:07:38;17.40;43.10
652;DHT22;310;48.490;9.200;2023-08-08T01:10:12;17.30;42.90
652;DHT22;310;48.490;9.200;2023-08-08T01:12:52;17.50;43.90
652;DHT22;310;48.490;9.200;2023-08-08T01:15:19;17.90;44.30
652;DHT22;310;48.490;9.200;2023-08-08T01:17:46;17.50;43.50
652;DHT22;310;48.490;9.200;2023-08-08T01:20:13;17.60;43.40
652;DHT22;310;48.490;9.200;2023-08-08T01:25:26;17.60;43.00
652;DHT22;310;48.490;9.200;2023-08-08T01:27:52;17.70;42.80
652;DHT22;310;48.490;9.200;2023-08-08T01:30:17;17.40;43.30
652;DHT22;310;48.490;9.200;2023-08-08T01:32:43;17.60;42.80
652;DHT22;310;48.490;9.200;2023-08-08T01:35:08;17.50;43.60
652;DHT22;310;48.490;9.200;2023-08-08T01:37:43;17.50;43.00
652;DHT22;310;48.490;9.200;2023-08-08T01:40:13;17.40;43.80
652;DHT22;310;48.490;9.200;2023-08-08T01:42:43;17.90;43.40
652;DHT22;310;48.490;9.200;2023-08-08T01:45:10;17.70;43.10
652;DHT22;310;48.490;9.200;2023-08-08T01:47:37;17.40;43.50
652;DHT22;310;48.490;9.200;2023-08-08T01:50:02;17.60;42.60
652;DHT22;310;48.490;9.200;2023-08-08T01:52:28;17.40;43.70
652;DHT22;310;48.490;9.200;2023-08-08T01:54:54;17.60;42.50
652;DHT22;310;48.490;9.200;2023-08-08T01:57:19;17.60;43.10
652;DHT22;310;48.490;9.200;2023-08-08T01:59:45;17.50;42.60
652;DHT22;310;48.490;9.200;2023-08-08T02:02:11;17.50;43.50
652;DHT22;310;48.490;9.200;2023-08-08T02:04:37;17.50;43.60
652;DHT22;310;48.490;9.200;2023-08-08T02:07:02;17.50;43.20
652;DHT22;310;48.490;9.200;2023-08-08T02:09:28;17.50;43.70
652;DHT22;310;48.490;9.200;2023-08-08T02:11:53;17.60;43.60
652;DHT22;310;48.490;9.200;2023-08-08T02:14:19;17.50;43.80
652;DHT22;310;48.490;9.200;2023-08-08T02:16:45;17.60;43.20
652;DHT22;310;48.490;9.200;2023-08-08T02:19:10;17.60;44.30
652;DHT22;310;48.490;9.200;2023-08-08T02:21:36;17.60;43.60
652;DHT22;310;48.490;9.200;2023-08-08T02:24:01;17.50;43.50
652;DHT22;310;48.490;9.200;2023-08-08T02:26:27;17.50;42.80
652;DHT22;310;48.490;9.200;2023-08-08T02:28:52;17.70;44.60
652;DHT22;310;48.490;9.200;2023-08-08T02:31:18;17.50;43.90
652;DHT22;310;48.490;9.200;2023-08-08T02:33:50;17.50;44.20
652;DHT22;310;48.490;9.200;2023-08-08T02:36:17;17.50;43.50
652;DHT22;310;48.490;9.200;2023-08-08T02:38:42;17.60;43.60
652;DHT22;310;48.490;9.200;2023-08-08T02:41:08;17.80;42.00
652;DHT22;310;48.490;9.200;2023-08-08T02:43:33;17.70;43.70
652;DHT22;310;48.490;9.200;2023-08-08T02:45:59;17.70;43.00
652;DHT22;310;48.490;9.200;2023-08-08T02:48:25;17.60;43.10
652;DHT22;310;48.490;9.200;2023-08-08T02:50:50;17.60;43.60
652;DHT22;310;48.490;9.200;2023-08-08T02:53:16;17.50;43.40
652;DHT22;310;48.490;9.200;2023-08-08T02:55:41;17.60;43.90
652;DHT22;310;48.490;9.200;2023-08-08T02:58:07;17.40;43.60
652;DHT22;310;48.490;9.200;2023-08-08T03:00:32;17.40;44.00
652;DHT22;310;48.490;9.200;2023-08-08T03:02:58;17.20;45.80
652;DHT22;310;48.490;9.200;2023-08-08T03:05:24;17.20;44.50
652;DHT22;310;48.490;9.200;2023-08-08T03:07:50;17.50;45.20
652;DHT22;310;48.490;9.200;2023-08-08T03:10:15;17.40;44.20
652;DHT22;310;48.490;9.200;2023-08-08T03:12:41;17.30;44.30
652;DHT22;310;48.490;9.200;2023-08-08T03:15:07;17.30;44.30
652;DHT22;310;48.490;9.200;2023-08-08T03:17:33;17.40;43.40
652;DHT22;310;48.490;9.200;2023-08-08T03:19:59;17.20;44.30
652;DHT22;310;48.490;9.200;2023-08-08T03:22:24;17.30;43.70
652;DHT22;310;48.490;9.200;2023-08-08T03:24:50;17.40;44.10
652;DHT22;310;48.490;9.200;2023-08-08T03:27:15;17.30;44.50
652;DHT22;310;48.490;9.200;2023-08-08T03:29:41;17.60;43.20
652;DHT22;310;48.490;9.200;2023-08-08T03:32:06;17.50;44.10
652;DHT22;310;48.490;9.200;2023-08-08T03:34:32;17.70;42.40
652;DHT22;310;48.490;9.200;2023-08-08T03:36:58;17.70;42.00
652;DHT22;310;48.490;9.200;2023-08-08T03:39:23;17.90;43.90
652;DHT22;310;48.490;9.200;2023-08-08T03:41:49;17.50;43.00
652;DHT22;310;48.490;9.200;2023-08-08T03:44:14;17.40;43.30
652;DHT22;310;48.490;9.200;2023-08-08T03:46:40;17.30;44.00
652;DHT22;310;48.490;9.200;2023-08-08T03:49:05;17.30;44.80
652;DHT22;310;48.490;9.200;2023-08-08T03:51:31;17.20;44.30
652;DHT22;310;48.490;9.200;2023-08-08T03:53:56;17.50;45.20
652;DHT22;310;48.490;9.200;2023-08-08T03:56:22;17.50;44.90
652;DHT22;310;48.490;9.200;2023-08-08T03:58:48;17.40;45.10
652;DHT22;310;48.490;9.200;2023-08-08T04:01:13;17.50;44.20
652;DHT22;310;48.490;9.200;2023-08-08T04:03:39;17.30;45.70
652;DHT22;310;48.490;9.200;2023-08-08T04:06:04;17.20;45.40
652;DHT22;310;48.490;9.200;2023-08-08T04:08:30;17.30;44.80
652;DHT22;310;48.490;9.200;2023-08-08T04:10:56;17.60;44.00
652;DHT22;310;48.490;9.200;2023-08-08T04:13:21;18.00;42.60
652;DHT22;310;48.490;9.200;2023-08-08T04:15:47;17.80;42.80
652;DHT22;310;48.490;9.200;2023-08-08T04:18:12;17.70;43.60
652;DHT22;310;48.490;9.200;2023-08-08T04:20:38;17.70;43.80
652;DHT22;310;48.490;9.200;2023-08-08T04:23:04;17.60;43.80
652;DHT22;310;48.490;9.200;2023-08-08T04:25:30;17.70;44.70
652;DHT22;310;48.490;9.200;2023-08-08T04:27:55;17.60;44.90
652;DHT22;310;48.490;9.200;2023-08-08T04:30:21;17.70;44.30
652;DHT22;310;48.490;9.200;2023-08-08T04:32:46;17.70;44.30
652;DHT22;310;48.490;9.200;2023-08-08T04:35:12;17.90;43.00
652;DHT22;310;48.490;9.200;2023-08-08T04:37:37;17.70;44.90
652;DHT22;310;48.490;9.200;2023-08-08T04:40:03;17.80;44.60
652;DHT22;310;48.490;9.200;2023-08-08T04:42:30;17.80;44.30
652;DHT22;310;48.490;9.200;2023-08-08T04:44:56;17.60;45.10
652;DHT22;310;48.490;9.200;2023-08-08T04:47:21;17.60;44.20
652;DHT22;310;48.490;9.200;2023-08-08T04:49:47;17.90;44.50
652;DHT22;310;48.490;9.200;2023-08-08T04:52:12;17.60;43.90
652;DHT22;310;48.490;9.200;2023-08-08T04:54:38;17.60;45.10
652;DHT22;310;48.490;9.200;2023-08-08T04:57:04;17.80;44.20
652;DHT22;310;48.490;9.200;2023-08-08T04:59:29;17.70;44.10
652;DHT22;310;48.490;9.200;2023-08-08T05:01:55;17.60;45.10
652;DHT22;310;48.490;9.200;2023-08-08T05:04:20;17.50;45.20
652;DHT22;310;48.490;9.200;2023-08-08T05:06:46;17.60;45.30
652;DHT22;310;48.490;9.200;2023-08-08T05:09:11;17.60;45.10
652;DHT22;310;48.490;9.200;2023-08-08T05:11:37;17.90;44.80
652;DHT22;310;48.490;9.200;2023-08-08T05:14:03;17.70;44.50
652;DHT22;310;48.490;9.200;2023-08-08T05:16:28;17.70;45.10
652;DHT22;310;48.490;9.200;2023-08-08T05:18:54;17.90;44.20
652;DHT22;310;48.490;9.200;2023-08-08T05:21:21;17.80;44.60
652;DHT22;310;48.490;9.200;2023-08-08T05:23:46;17.70;45.80
652;DHT22;310;48.490;9.200;2023-08-08T05:26:13;17.90;44.90
652;DHT22;310;48.490;9.200;2023-08-08T05:28:39;15.50;42.80
652;DHT22;310;48.490;9.200;2023-08-08T05:31:04;18.10;43.60
652;DHT22;310;48.490;9.200;2023-08-08T05:33:30;18.20;43.70
652;DHT22;310;48.490;9.200;2023-08-08T05:35:55;18.50;43.70
652;DHT22;310;48.490;9.200;2023-08-08T05:38:21;18.20;44.30
652;DHT22;310;48.490;9.200;2023-08-08T05:40:46;18.40;44.70
652;DHT22;310;48.490;9.200;2023-08-08T05:43:12;18.20;42.90
652;DHT22;310;48.490;9.200;2023-08-08T05:45:42;17.50;41.90
652;DHT22;310;48.490;9.200;2023-08-08T05:48:08;18.20;45.80
652;DHT22;310;48.490;9.200;2023-08-08T05:50:40;18.00;43.60
652;DHT22;310;48.490;9.200;2023-08-08T05:53:06;18.30;43.40
652;DHT22;310;48.490;9.200;2023-08-08T05:55:31;18.20;40.00
652;DHT22;310;48.490;9.200;2023-08-08T05:57:57;18.20;42.70
652;DHT22;310;48.490;9.200;2023-08-08T06:00:23;18.00;40.80
652;DHT22;310;48.490;9.200;2023-08-08T06:02:48;17.20;42.50
652;DHT22;310;48.490;9.200;2023-08-08T06:05:16;17.40;41.80
652;DHT22;310;48.490;9.200;2023-08-08T06:07:42;18.10;43.80
652;DHT22;310;48.490;9.200;2023-08-08T06:10:10;18.40;43.20
652;DHT22;310;48.490;9.200;2023-08-08T06:12:36;18.50;40.20
652;DHT22;310;48.490;9.200;2023-08-08T06:15:02;19.10;40.80
652;DHT22;310;48.490;9.200;2023-08-08T06:17:29;18.10;39.00
652;DHT22;310;48.490;9.200;2023-08-08T06:19:54;18.50;38.50
652;DHT22;310;48.490;9.200;2023-08-08T06:22:22;18.50;39.30
652;DHT22;310;48.490;9.200;2023-08-08T06:24:48;19.10;38.80
652;DHT22;310;48.490;9.200;2023-08-08T06:27:13;19.10;39.00
652;DHT22;310;48.490;9.200;2023-08-08T06:29:39;19.20;40.90
652;DHT22;310;48.490;9.200;2023-08-08T06:32:05;19.20;39.70
652;DHT22;310;48.490;9.200;2023-08-08T06:34:30;19.20;38.10
652;DHT22;310;48.490;9.200;2023-08-08T06:36:56;19.70;40.40
652;DHT22;310;48.490;9.200;2023-08-08T06:39:21;19.50;40.40
652;DHT22;310;48.490;9.200;2023-08-08T06:41:47;19.60;40.20
652;DHT22;310;48.490;9.200;2023-08-08T06:44:13;19.70;40.30
652;DHT22;310;48.490;9.200;2023-08-08T06:46:38;19.10;37.00
652;DHT22;310;48.490;9.200;2023-08-08T06:49:04;18.90;38.10
652;DHT22;310;48.490;9.200;2023-08-08T06:51:30;19.00;38.40
652;DHT22;310;48.490;9.200;2023-08-08T06:53:56;19.00;39.00
652;DHT22;310;48.490;9.200;2023-08-08T06:56:21;19.10;38.90
652;DHT22;310;48.490;9.200;2023-08-08T06:58:47;19.30;37.10
652;DHT22;310;48.490;9.200;2023-08-08T07:01:13;19.50;37.80
652;DHT22;310;48.490;9.200;2023-08-08T07:03:39;19.30;37.80
652;DHT22;310;48.490;9.200;2023-08-08T07:06:04;19.20;36.80
652;DHT22;310;48.490;9.200;2023-08-08T07:08:31;18.80;38.10
652;DHT22;310;48.490;9.200;2023-08-08T07:10:57;19.00;36.10
652;DHT22;310;48.490;9.200;2023-08-08T07:13:23;18.90;38.30
652;DHT22;310;48.490;9.200;2023-08-08T07:15:48;19.70;35.70
652;DHT22;310;48.490;9.200;2023-08-08T07:18:14;20.00;35.80
652;DHT22;310;48.490;9.200;2023-08-08T07:20:40;19.80;33.80
652;DHT22;310;48.490;9.200;2023-08-08T07:23:06;19.40;34.90
652;DHT22;310;48.490;9.200;2023-08-08T07:25:31;19.00;35.10
652;DHT22;310;48.490;9.200;2023-08-08T07:27:57;19.30;36.20
652;DHT22;310;48.490;9.200;2023-08-08T07:30:23;19.30;34.60
652;DHT22;310;48.490;9.200;2023-08-08T07:32:49;19.30;34.50
652;DHT22;310;48.490;9.200;2023-08-08T07:35:15;19.50;35.40
652;DHT22;310;48.490;9.200;2023-08-08T07:37:41;19.50;36.00
652;DHT22;310;48.490;9.200;2023-08-08T07:40:19;19.90;33.30
652;DHT22;310;48.490;9.200;2023-08-08T07:42:46;20.00;33.40
652;DHT22;310;48.490;9.200;2023-08-08T07:45:12;20.80;32.40
652;DHT22;310;48.490;9.200;2023-08-08T07:47:37;20.70;32.10
652;DHT22;310;48.490;9.200;2023-08-08T07:50:03;20.30;33.50
652;DHT22;310;48.490;9.200;2023-08-08T07:52:29;20.70;31.90
652;DHT22;310;48.490;9.200;2023-08-08T07:54:54;20.70;31.00
652;DHT22;310;48.490;9.200;2023-08-08T07:57:20;20.10;32.40
652;DHT22;310;48.490;9.200;2023-08-08T07:59:46;20.40;32.50
652;DHT22;310;48.490;9.200;2023-08-08T08:02:11;20.60;31.90
652;DHT22;310;48.490;9.200;2023-08-08T08:04:37;19.40;33.40
652;DHT22;310;48.490;9.200;2023-08-08T08:07:02;19.00;34.00
652;DHT22;310;48.490;9.200;2023-08-08T08:09:28;19.30;33.30
652;DHT22;310;48.490;9.200;2023-08-08T08:11:54;19.50;33.70
652;DHT22;310;48.490;9.200;2023-08-08T08:14:21;19.70;33.40
652;DHT22;310;48.490;9.200;2023-08-08T08:16:47;19.80;32.60
652;DHT22;310;48.490;9.200;2023-08-08T08:19:12;20.40;31.70
652;DHT22;310;48.490;9.200;2023-08-08T08:21:38;21.10;30.40
652;DHT22;310;48.490;9.200;2023-08-08T08:24:04;21.10;30.00
652;DHT22;310;48.490;9.200;2023-08-08T08:26:31;20.90;31.00
652;DHT22;310;48.490;9.200;2023-08-08T08:28:57;21.00;30.00
652;DHT22;310;48.490;9.200;2023-08-08T08:31:23;20.60;31.00
652;DHT22;310;48.490;9.200;2023-08-08T08:33:48;20.40;32.20
652;DHT22;310;48.490;9.200;2023-08-08T08:36:14;20.60;31.50
652;DHT22;310;48.490;9.200;2023-08-08T08:38:39;20.20;30.80
652;DHT22;310;48.490;9.200;2023-08-08T08:41:05;19.50;32.20
652;DHT22;310;48.490;9.200;2023-08-08T08:43:31;19.40;33.60
652;DHT22;310;48.490;9.200;2023-08-08T08:46:00;19.10;33.40
652;DHT22;310;48.490;9.200;2023-08-08T08:48:28;19.90;30.70
652;DHT22;310;48.490;9.200;2023-08-08T08:50:53;19.90;31.90
652;DHT22;310;48.490;9.200;2023-08-08T08:53:20;19.50;32.10
652;DHT22;310;48.490;9.200;2023-08-08T08:55:48;20.00;31.90
652;DHT22;310;48.490;9.200;2023-08-08T08:58:15;20.60;30.80
652;DHT22;310;48.490;9.200;2023-08-08T09:00:44;20.70;29.90
652;DHT22;310;48.490;9.200;2023-08-08T09:03:11;20.30;32.70
652;DHT22;310;48.490;9.200;2023-08-08T09:05:39;20.50;32.00
652;DHT22;310;48.490;9.200;2023-08-08T09:08:06;20.40;30.80
652;DHT22;310;48.490;9.200;2023-08-08T09:10:32;20.10;32.20
652;DHT22;310;48.490;9.200;2023-08-08T09:12:58;19.70;32.70
652;DHT22;310;48.490;9.200;2023-08-08T09:15:23;20.80;31.10
652;DHT22;310;48.490;9.200;2023-08-08T09:17:49;20.60;30.70
652;DHT22;310;48.490;9.200;2023-08-08T09:20:17;20.40;30.20
652;DHT22;310;48.490;9.200;2023-08-08T09:22:42;21.00;29.90
652;DHT22;310;48.490;9.200;2023-08-08T09:25:08;20.70;29.70
652;DHT22;310;48.490;9.200;2023-08-08T09:27:34;20.20;30.70
652;DHT22;310;48.490;9.200;2023-08-08T09:30:00;19.50;31.50
652;DHT22;310;48.490;9.200;2023-08-08T09:32:30;19.60;30.30
652;DHT22;310;48.490;9.200;2023-08-08T09:34:57;19.60;29.80
652;DHT22;310;48.490;9.200;2023-08-08T09:37:22;20.00;30.70
652;DHT22;310;48.490;9.200;2023-08-08T09:39:56;20.80;29.90
652;DHT22;310;48.490;9.200;2023-08-08T09:42:22;20.40;29.10
652;DHT22;310;48.490;9.200;2023-08-08T09:44:48;20.40;28.70
652;DHT22;310;48.490;9.200;2023-08-08T09:47:14;20.10;29.60
652;DHT22;310;48.490;9.200;2023-08-08T09:49:40;20.40;28.80
652;DHT22;310;48.490;9.200;2023-08-08T09:52:06;20.10;29.90
652;DHT22;310;48.490;9.200;2023-08-08T09:54:33;20.30;30.00
652;DHT22;310;48.490;9.200;2023-08-08T09:56:59;20.50;29.80
652;DHT22;310;48.490;9.200;2023-08-08T09:59:25;21.10;27.20
652;DHT22;310;48.490;9.200;2023-08-08T10:01:51;21.40;27.90
652;DHT22;310;48.490;9.200;2023-08-08T10:04:17;21.30;27.90
652;DHT22;310;48.490;9.200;2023-08-08T10:06:43;21.40;27.90
652;DHT22;310;48.490;9.200;2023-08-08T10:09:09;21.80;27.30
652;DHT22;310;48.490;9.200;2023-08-08T10:11:34;21.90;25.20
652;DHT22;310;48.490;9.200;2023-08-08T10:14:02;22.60;27.10
652;DHT22;310;48.490;9.200;2023-08-08T10:16:32;22.20;25.90
652;DHT22;310;48.490;9.200;2023-08-08T10:19:00;21.60;27.30
652;DHT22;310;48.490;9.200;2023-08-08T10:21:25;21.70;26.40
652;DHT22;310;48.490;9.200;2023-08-08T10:26:29;20.90;27.30
652;DHT22;310;48.490;9.200;2023-08-08T10:28:56;21.30;27.50
652;DHT22;310;48.490;9.200;2023-08-08T10:31:22;21.70;27.20
652;DHT22;310;48.490;9.200;2023-08-08T10:33:48;22.10;25.90
652;DHT22;310;48.490;9.200;2023-08-08T10:36:13;21.20;28.10
652;DHT22;310;48.490;9.200;2023-08-08T10:38:40;21.90;27.00
652;DHT22;310;48.490;9.200;2023-08-08T10:41:18;22.40;26.10
652;DHT22;310;48.490;9.200;2023-08-08T10:43:55;22.50;25.30
652;DHT22;310;48.490;9.200;2023-08-08T10:46:30;22.80;24.90
652;DHT22;310;48.490;9.200;2023-08-08T10:49:00;23.00;24.90
652;DHT22;310;48.490;9.200;2023-08-08T10:51:37;22.60;25.00
652;DHT22;310;48.490;9.200;2023-08-08T10:54:12;23.00;24.70
652;DHT22;310;48.490;9.200;2023-08-08T10:56:38;23.30;24.80
652;DHT22;310;48.490;9.200;2023-08-08T10:59:17;23.30;25.30
652;DHT22;310;48.490;9.200;2023-08-08T11:01:46;23.30;24.00
652;DHT22;310;48.490;9.200;2023-08-08T11:04:13;23.00;23.40
652;DHT22;310;48.490;9.200;2023-08-08T11:06:39;22.50;24.60
652;DHT22;310;48.490;9.200;2023-08-08T11:09:06;21.50;26.80
652;DHT22;310;48.490;9.200;2023-08-08T11:11:39;22.70;24.80
652;DHT22;310;48.490;9.200;2023-08-08T11:14:16;22.20;25.20
652;DHT22;310;48.490;9.200;2023-08-08T11:16:44;23.20;24.80
652;DHT22;310;48.490;9.200;2023-08-08T11:19:10;23.30;24.20
652;DHT22;310;48.490;9.200;2023-08-08T11:21:42;23.50;23.30
652;DHT22;310;48.490;9.200;2023-08-08T11:24:08;23.20;24.00
652;DHT22;310;48.490;9.200;2023-08-08T11:26:35;23.10;23.70
652;DHT22;310;48.490;9.200;2023-08-08T11:29:02;23.10;24.10
652;DHT22;310;48.490;9.200;2023-08-08T11:31:29;23.80;23.20
652;DHT22;310;48.490;9.200;2023-08-08T11:33:55;22.80;23.80
652;DHT22;310;48.490;9.200;2023-08-08T11:36:22;22.90;24.20
652;DHT22;310;48.490;9.200;2023-08-08T11:38:48;22.40;23.90
652;DHT22;310;48.490;9.200;2023-08-08T11:41:15;22.90;24.60
652;DHT22;310;48.490;9.200;2023-08-08T11:43:43;23.60;22.30
652;DHT22;310;48.490;9.200;2023-08-08T11:46:09;24.90;23.20
652;DHT22;310;48.490;9.200;2023-08-08T11:48:37;25.20;20.40
652;DHT22;310;48.490;9.200;2023-08-08T11:51:04;26.10;18.90
652;DHT22;310;48.490;9.200;2023-08-08T11:53:29;26.60;19.80
652;DHT22;310;48.490;9.200;2023-08-08T11:55:56;26.90;18.50
652;DHT22;310;48.490;9.200;2023-08-08T11:58:24;27.20;18.60
652;DHT22;310;48.490;9.200;2023-08-08T12:00:50;26.00;19.60
652;DHT22;310;48.490;9.200;2023-08-08T12:03:18;24.60;21.10
652;DHT22;310;48.490;9.200;2023-08-08T12:05:46;24.30;22.30
652;DHT22;310;48.490;9.200;2023-08-08T12:08:11;25.10;20.40
652;DHT22;310;48.490;9.200;2023-08-08T12:10:37;25.40;19.60
652;DHT22;310;48.490;9.200;2023-08-08T12:13:03;24.10;21.80
652;DHT22;310;48.490;9.200;2023-08-08T12:15:33;23.70;22.40
652;DHT22;310;48.490;9.200;2023-08-08T12:18:02;23.80;20.90
652;DHT22;310;48.490;9.200;2023-08-08T12:20:28;23.50;20.50
652;DHT22;310;48.490;9.200;2023-08-08T12:22:55;23.80;21.30
652;DHT22;310;48.490;9.200;2023-08-08T12:25:21;24.60;19.60
652;DHT22;310;48.490;9.200;2023-08-08T12:27:46;25.60;18.60
652;DHT22;310;48.490;9.200;2023-08-08T12:30:12;26.10;18.60
652;DHT22;310;48.490;9.200;2023-08-08T12:32:37;25.00;18.80
652;DHT22;310;48.490;9.200;2023-08-08T12:35:03;25.70;18.40
652;DHT22;310;48.490;9.200;2023-08-08T12:37:29;24.90;19.00
652;DHT22;310;48.490;9.200;2023-08-08T12:39:55;23.90;20.30
652;DHT22;310;48.490;9.200;2023-08-08T12:42:20;23.30;20.50
652;DHT22;310;48.490;9.200;2023-08-08T12:44:46;24.30;22.30
652;DHT22;310;48.490;9.200;2023-08-08T12:47:12;25.40;19.10
652;DHT22;310;48.490;9.200;2023-08-08T12:49:38;26.40;18.20
652;DHT22;310;48.490;9.200;2023-08-08T12:52:04;27.10;19.30
652;DHT22;310;48.490;9.200;2023-08-08T12:54:30;27.10;18.00
652;DHT22;310;48.490;9.200;2023-08-08T12:56:55;27.00;17.60
652;DHT22;310;48.490;9.200;2023-08-08T12:59:21;27.10;17.00
652;DHT22;310;48.490;9.200;2023-08-08T13:01:47;27.50;15.90
652;DHT22;310;48.490;9.200;2023-08-08T13:04:12;27.40;15.70
652;DHT22;310;48.490;9.200;2023-08-08T13:06:38;27.00;16.10
652;DHT22;310;48.490;9.200;2023-08-08T13:09:04;26.90;16.80
652;DHT22;310;48.490;9.200;2023-08-08T13:11:29;26.90;17.00
652;DHT22;310;48.490;9.200;2023-08-08T13:13:55;27.10;17.00
652;DHT22;310;48.490;9.200;2023-08-08T13:16:21;27.40;16.30
652;DHT22;310;48.490;9.200;2023-08-08T13:18:46;27.80;16.40
652;DHT22;310;48.490;9.200;2023-08-08T13:21:12;26.80;17.10
652;DHT22;310;48.490;9.200;2023-08-08T13:23:38;26.30;18.20
652;DHT22;310;48.490;9.200;2023-08-08T13:26:04;26.10;18.10
652;DHT22;310;48.490;9.200;2023-08-08T13:28:30;25.70;18.20
652;DHT22;310;48.490;9.200;2023-08-08T13:30:55;24.50;19.80
652;DHT22;310;48.490;9.200;2023-08-08T13:33:21;24.90;19.30
652;DHT22;310;48.490;9.200;2023-08-08T13:35:47;25.00;19.30
652;DHT22;310;48.490;9.200;2023-08-08T13:38:12;24.00;20.80
652;DHT22;310;48.490;9.200;2023-08-08T13:40:41;24.00;20.40
652;DHT22;310;48.490;9.200;2023-08-08T13:43:06;24.40;20.40
652;DHT22;310;48.490;9.200;2023-08-08T13:45:32;24.60;20.40
652;DHT22;310;48.490;9.200;2023-08-08T13:47:57;25.50;19.30
652;DHT22;310;48.490;9.200;2023-08-08T13:50:23;26.10;18.30
652;DHT22;310;48.490;9.200;2023-08-08T13:52:49;25.40;19.50
652;DHT22;310;48.490;9.200;2023-08-08T13:55:14;25.10;20.00
652;DHT22;310;48.490;9.200;2023-08-08T13:57:40;24.90;20.50
652;DHT22;310;48.490;9.200;2023-08-08T14:00:06;24.60;20.10
652;DHT22;310;48.490;9.200;2023-08-08T14:02:32;24.20;19.80
652;DHT22;310;48.490;9.200;2023-08-08T14:04:58;23.80;21.10
652;DHT22;310;48.490;9.200;2023-08-08T14:07:24;23.30;21.90
652;DHT22;310;48.490;9.200;2023-08-08T14:09:49;23.40;21.90
652;DHT22;310;48.490;9.200;2023-08-08T14:12:15;23.10;22.10
652;DHT22;310;48.490;9.200;2023-08-08T14:14:41;22.70;22.70
652;DHT22;310;48.490;9.200;2023-08-08T14:17:06;22.90;22.60
652;DHT22;310;48.490;9.200;2023-08-08T14:19:32;23.00;22.70
652;DHT22;310;48.490;9.200;2023-08-08T14:21:58;22.60;23.20
652;DHT22;310;48.490;9.200;2023-08-08T14:24:23;22.50;24.40
652;DHT22;310;48.490;9.200;2023-08-08T14:26:49;22.60;23.50
652;DHT22;310;48.490;9.200;2023-08-08T14:29:14;22.30;23.60
652;DHT22;310;48.490;9.200;2023-08-08T14:31:40;22.50;23.60
652;DHT22;310;48.490;9.200;2023-08-08T14:34:05;22.70;23.20
652;DHT22;310;48.490;9.200;2023-08-08T14:36:31;23.10;23.40
652;DHT22;310;48.490;9.200;2023-08-08T14:38:57;23.10;22.60
652;DHT22;310;48.490;9.200;2023-08-08T14:41:22;23.70;21.90
652;DHT22;310;48.490;9.200;2023-08-08T14:43:48;23.90;22.30
652;DHT22;310;48.490;9.200;2023-08-08T14:46:14;24.10;21.20
652;DHT22;310;48.490;9.200;2023-08-08T14:48:41;23.50;22.80
652;DHT22;310;48.490;9.200;2023-08-08T14:51:06;23.20;22.50
652;DHT22;310;48.490;9.200;2023-08-08T14:53:32;23.00;23.60
652;DHT22;310;48.490;9.200;2023-08-08T14:55:58;23.30;23.70
652;DHT22;310;48.490;9.200;2023-08-08T14:58:24;23.70;22.70
652;DHT22;310;48.490;9.200;2023-08-08T15:00:49;23.60;23.30
652;DHT22;310;48.490;9.200;2023-08-08T15:03:15;23.30;23.20
652;DHT22;310;48.490;9.200;2023-08-08T15:05:42;22.80;24.00
652;DHT22;310;48.490;9.200;2023-08-08T15:08:11;22.80;24.60
652;DHT22;310;48.490;9.200;2023-08-08T15:10:36;23.50;24.60
652;DHT22;310;48.490;9.200;2023-08-08T15:13:02;23.30;24.00
652;DHT22;310;48.490;9.200;2023-08-08T15:15:27;23.20;23.60
652;DHT22;310;48.490;9.200;2023-08-08T15:17:55;23.70;23.60
652;DHT22;310;48.490;9.200;2023-08-08T15:20:20;23.50;24.90
652;DHT22;310;48.490;9.200;2023-08-08T15:22:46;23.70;24.00
652;DHT22;310;48.490;9.200;2023-08-08T15:25:12;23.50;23.30
652;DHT22;310;48.490;9.200;2023-08-08T15:27:37;23.40;23.80
652;DHT22;310;48.490;9.200;2023-08-08T15:30:04;23.80;23.80
652;DHT22;310;48.490;9.200;2023-08-08T15:32:29;24.00;22.70
652;DHT22;310;48.490;9.200;2023-08-08T15:34:55;23.90;22.60
652;DHT22;310;48.490;9.200;2023-08-08T15:37:21;23.40;22.70
652;DHT22;310;48.490;9.200;2023-08-08T15:39:46;22.90;23.50
652;DHT22;310;48.490;9.200;2023-08-08T15:42:12;22.70;24.00
652;DHT22;310;48.490;9.200;2023-08-08T15:44:37;22.80;24.50
652;DHT22;310;48.490;9.200;2023-08-08T15:47:03;23.10;24.90
652;DHT22;310;48.490;9.200;2023-08-08T15:49:28;23.20;23.90
652;DHT22;310;48.490;9.200;2023-08-08T15:51:54;23.20;24.00
652;DHT22;310;48.490;9.200;2023-08-08T15:54:22;22.80;24.30
652;DHT22;310;48.490;9.200;2023-08-08T15:56:49;22.70;24.40
652;DHT22;310;48.490;9.200;2023-08-08T15:59:14;22.50;24.80
652;DHT22;310;48.490;9.200;2023-08-08T16:01:40;22.60;24.90
652;DHT22;310;48.490;9.200;2023-08-08T16:04:05;22.70;24.80
652;DHT22;310;48.490;9.200;2023-08-08T16:06:31;22.90;24.80
652;DHT22;310;48.490;9.200;2023-08-08T16:08:56;22.70;23.90
652;DHT22;310;48.490;9.200;2023-08-08T16:11:23;22.20;25.10
652;DHT22;310;48.490;9.200;2023-08-08T16:13:49;22.50;24.20
652;DHT22;310;48.490;9.200;2023-08-08T16:16:15;23.10;23.60
652;DHT22;310;48.490;9.200;2023-08-08T16:18:40;23.70;22.70
652;DHT22;310;48.490;9.200;2023-08-08T16:21:06;23.90;22.50
652;DHT22;310;48.490;9.200;2023-08-08T16:23:31;23.10;23.40
652;DHT22;310;48.490;9.200;2023-08-08T16:25:57;22.90;23.80
652;DHT22;310;48.490;9.200;2023-08-08T16:28:23;22.90;24.30
652;DHT22;310;48.490;9.200;2023-08-08T16:30:50;23.60;23.90
652;DHT22;310;48.490;9.200;2023-08-08T16:33:15;23.60;23.40